createdAt,value
2023-04-13T00:00:36.552Z,17.41
2023-04-13T00:03:03.738Z,17.33
2023-04-13T00:05:31.486Z,17.25
2023-04-13T00:08:03.114Z,17.09
2023-04-13T00:10:31.514Z,17.18
2023-04-13T00:13:01.602Z,17.14
2023-04-13T00:15:28.476Z,17.14
2023-04-13T00:17:55.356Z,17.11
2023-04-13T00:20:22.194Z,17.09
2023-04-13T00:22:49.036Z,17.10
2023-04-13T00:25:16.616Z,17.11
2023-04-13T00:27:44.846Z,17.06
2023-04-13T00:30:14.091Z,17.09
2023-04-13T00:32:45.124Z,17.12
2023-04-13T00:35:15.837Z,17.11
2023-04-13T00:37:43.270Z,17.13
2023-04-13T00:40:10.945Z,17.12
2023-04-13T00:42:37.797Z,17.15
2023-04-13T00:45:04.996Z,17.12
2023-04-13T00:47:36.439Z,17.09
2023-04-13T00:50:05.939Z,17.04
2023-04-13T00:52:39.380Z,16.93
2023-04-13T00:55:07.405Z,16.99
2023-04-13T00:57:35.438Z,16.96
2023-04-13T01:00:07.920Z,16.86
2023-04-13T01:02:35.328Z,16.82
2023-04-13T01:05:04.031Z,16.81
2023-04-13T01:07:45.007Z,16.81
2023-04-13T01:10:23.710Z,16.81
2023-04-13T01:12:58.413Z,16.80
2023-04-13T01:15:28.509Z,16.77
2023-04-13T01:17:59.840Z,16.75
2023-04-13T01:20:29.132Z,16.70
2023-04-13T01:23:01.702Z,16.67
2023-04-13T01:25:45.653Z,16.63
2023-04-13T01:28:16.035Z,16.59
2023-04-13T01:30:44.708Z,16.53
2023-04-13T01:33:14.146Z,16.55
2023-04-13T01:35:42.254Z,16.58
2023-04-13T01:38:14.399Z,16.57
2023-04-13T01:40:41.795Z,16.53
2023-04-13T01:43:10.474Z,16.58
2023-04-13T01:46:04.915Z,16.51
2023-04-13T01:48:40.579Z,16.54
2023-04-13T01:51:32.359Z,16.57
2023-04-13T01:54:12.858Z,16.55
2023-04-13T01:56:43.947Z,16.49
2023-04-13T01:59:11.420Z,16.50
2023-04-13T02:01:41.526Z,16.46
2023-04-13T02:04:09.025Z,16.44
2023-04-13T02:06:37.835Z,16.48
2023-04-13T02:09:06.961Z,16.51
2023-04-13T02:11:35.699Z,16.53
2023-04-13T02:14:04.943Z,16.55
2023-04-13T02:16:33.112Z,16.56
2023-04-13T02:19:00.294Z,16.55
2023-04-13T02:21:28.290Z,16.59
2023-04-13T02:23:55.097Z,16.60
2023-04-13T02:26:23.148Z,16.57
2023-04-13T02:28:51.434Z,16.60
2023-04-13T02:31:20.435Z,16.66
2023-04-13T02:33:47.787Z,16.69
2023-04-13T02:36:17.189Z,16.71
2023-04-13T02:38:51.683Z,16.73
2023-04-13T02:41:25.025Z,16.71
2023-04-13T02:43:52.315Z,16.62
2023-04-13T02:46:22.944Z,16.65
2023-04-13T02:48:56.570Z,16.62
2023-04-13T02:51:25.216Z,16.58
2023-04-13T02:53:52.654Z,16.50
2023-04-13T02:56:19.686Z,16.41
2023-04-13T02:58:52.610Z,16.24
2023-04-13T03:01:20.087Z,16.29
2023-04-13T03:03:47.945Z,16.14
2023-04-13T03:06:15.190Z,16.11
2023-04-13T03:08:46.365Z,16.09
2023-04-13T03:11:23.626Z,15.92
2023-04-13T03:14:13.037Z,15.96
2023-04-13T03:16:40.678Z,15.94
2023-04-13T03:19:08.781Z,15.85
2023-04-13T03:21:37.256Z,15.76
2023-04-13T03:24:09.581Z,15.81
2023-04-13T03:26:37.744Z,15.79
2023-04-13T03:29:08.533Z,15.70
2023-04-13T03:31:41.414Z,15.58
2023-04-13T03:34:08.921Z,15.57
2023-04-13T03:36:37.308Z,15.58
2023-04-13T03:39:05.548Z,15.58
2023-04-13T03:41:35.489Z,15.53
2023-04-13T03:44:04.856Z,15.55
2023-04-13T03:46:33.226Z,15.54
2023-04-13T03:49:09.188Z,15.46
2023-04-13T03:51:37.555Z,15.39
2023-04-13T03:54:04.864Z,15.29
2023-04-13T03:56:32.999Z,15.22
2023-04-13T03:59:00.259Z,15.00
2023-04-13T04:01:27.582Z,14.69
2023-04-13T04:03:57.717Z,14.73
2023-04-13T04:06:29.932Z,14.77
2023-04-13T04:09:09.487Z,14.78
2023-04-13T04:11:42.582Z,14.63
2023-04-13T04:14:10.850Z,14.49
2023-04-13T04:16:39.717Z,14.42
2023-04-13T04:19:13.156Z,14.50
2023-04-13T04:21:46.822Z,14.41
2023-04-13T04:24:23.618Z,14.48
2023-04-13T04:26:55.830Z,14.56
2023-04-13T04:29:34.441Z,14.50
2023-04-13T04:32:10.894Z,14.47
2023-04-13T04:34:38.994Z,14.43
2023-04-13T04:37:19.795Z,14.50
2023-04-13T04:39:53.486Z,14.47
2023-04-13T04:42:20.959Z,14.52
2023-04-13T04:44:50.368Z,14.42
2023-04-13T04:47:19.859Z,14.54
2023-04-13T04:50:04.056Z,14.44
2023-04-13T04:52:36.470Z,14.49
2023-04-13T04:55:06.369Z,14.46
2023-04-13T04:57:34.653Z,14.48
2023-04-13T05:00:10.820Z,14.37
2023-04-13T05:02:40.049Z,14.47
2023-04-13T05:05:11.730Z,14.47
2023-04-13T05:07:40.042Z,14.52
2023-04-13T05:10:09.415Z,14.52
2023-04-13T05:12:41.185Z,14.40
2023-04-13T05:15:09.111Z,14.31
2023-04-13T05:17:36.696Z,14.35
2023-04-13T05:20:07.279Z,14.16
2023-04-13T05:22:49.215Z,14.20
2023-04-13T05:25:16.880Z,14.22
2023-04-13T05:27:44.862Z,14.18
2023-04-13T05:30:12.632Z,14.12
2023-04-13T05:32:41.233Z,14.14
2023-04-13T05:35:08.481Z,14.17
2023-04-13T05:37:35.258Z,14.17
2023-04-13T05:40:02.902Z,14.09
2023-04-13T05:42:33.439Z,14.04
2023-04-13T05:45:01.615Z,14.01
2023-04-13T05:47:29.596Z,14.08
2023-04-13T05:50:01.901Z,14.14
2023-04-13T05:52:30.560Z,14.12
2023-04-13T05:54:58.169Z,14.21
2023-04-13T05:57:26.464Z,14.26
2023-04-13T05:59:55.009Z,14.26
2023-04-13T06:02:29.304Z,14.31
2023-04-13T06:04:56.491Z,14.29
2023-04-13T06:07:23.642Z,14.30
2023-04-13T06:09:50.411Z,14.39
2023-04-13T06:12:18.371Z,14.51
2023-04-13T06:14:46.012Z,14.51
2023-04-13T06:17:12.879Z,14.59
2023-04-13T06:19:39.978Z,14.45
2023-04-13T06:22:07.085Z,14.52
2023-04-13T06:24:37.561Z,14.49
2023-04-13T06:27:06.253Z,14.67
2023-04-13T06:29:33.258Z,14.75
2023-04-13T06:32:07.514Z,14.75
2023-04-13T06:34:35.827Z,14.79
2023-04-13T06:37:05.146Z,14.79
2023-04-13T06:39:40.533Z,14.84
2023-04-13T06:42:09.403Z,15.02
2023-04-13T06:44:47.985Z,15.00
2023-04-13T06:47:16.188Z,15.11
2023-04-13T06:49:44.648Z,15.23
2023-04-13T06:52:12.367Z,15.22
2023-04-13T06:54:39.404Z,15.31
2023-04-13T06:57:18.893Z,15.22
2023-04-13T06:59:45.835Z,15.16
2023-04-13T07:02:12.606Z,15.09
2023-04-13T07:04:39.646Z,15.04
2023-04-13T07:07:06.833Z,15.23
2023-04-13T07:09:34.361Z,15.33
2023-04-13T07:12:09.865Z,15.37
2023-04-13T07:14:39.186Z,15.34
2023-04-13T07:17:11.243Z,15.22
2023-04-13T07:19:39.549Z,15.08
2023-04-13T07:22:06.297Z,15.14
2023-04-13T07:24:34.628Z,15.27
2023-04-13T07:27:05.878Z,15.26
2023-04-13T07:29:33.380Z,15.46
2023-04-13T07:32:06.058Z,15.29
2023-04-13T07:34:34.867Z,15.26
2023-04-13T07:37:01.637Z,15.27
2023-04-13T07:39:28.462Z,15.34
2023-04-13T07:41:57.306Z,15.54
2023-04-13T07:44:35.478Z,15.66
2023-04-13T07:47:03.025Z,15.79
2023-04-13T07:49:31.540Z,15.81
2023-04-13T07:51:59.099Z,15.96
2023-04-13T07:54:28.621Z,16.07
2023-04-13T07:59:43.405Z,16.26
2023-04-13T08:02:10.737Z,16.44
2023-04-13T08:04:40.605Z,16.56
2023-04-13T08:07:08.951Z,16.74
2023-04-13T08:09:36.466Z,16.84
2023-04-13T08:12:04.071Z,17.00
2023-04-13T08:14:31.103Z,17.09
2023-04-13T08:16:58.687Z,17.15
2023-04-13T08:19:25.552Z,17.19
2023-04-13T08:21:56.729Z,17.28
2023-04-13T08:24:24.260Z,17.44
2023-04-13T08:26:54.934Z,17.50
2023-04-13T08:29:24.186Z,17.49
2023-04-13T08:31:51.686Z,17.36
2023-04-13T08:34:19.257Z,17.14
2023-04-13T08:36:46.672Z,17.11
2023-04-13T08:39:14.942Z,17.23
2023-04-13T08:41:47.850Z,17.51
2023-04-13T08:44:17.740Z,17.64
2023-04-13T08:46:48.571Z,17.72
2023-04-13T08:49:21.041Z,17.99
2023-04-13T08:52:16.722Z,17.92
2023-04-13T08:54:47.695Z,17.91
2023-04-13T08:57:21.190Z,17.82
2023-04-13T08:59:55.281Z,18.13
2023-04-13T09:02:24.598Z,18.33
2023-04-13T09:05:00.243Z,18.43
2023-04-13T09:07:32.453Z,18.36
2023-04-13T09:10:06.010Z,17.96
2023-04-13T09:12:32.866Z,18.24
2023-04-13T09:14:59.743Z,18.20
2023-04-13T09:17:35.213Z,18.11
2023-04-13T09:20:13.913Z,18.40
2023-04-13T09:22:41.280Z,18.48
2023-04-13T09:25:19.211Z,18.70
2023-04-13T09:27:46.014Z,18.91
2023-04-13T09:30:13.516Z,19.12
2023-04-13T09:32:40.370Z,19.02
2023-04-13T09:35:08.481Z,19.29
2023-04-13T09:37:36.838Z,19.44
2023-04-13T09:40:16.947Z,19.57
2023-04-13T09:43:04.654Z,19.76
2023-04-13T09:45:35.124Z,19.83
2023-04-13T09:48:03.494Z,19.92
2023-04-13T09:50:33.911Z,19.88
2023-04-13T09:53:05.345Z,20.03
2023-04-13T09:55:37.265Z,20.15
2023-04-13T09:58:12.345Z,20.24
2023-04-13T10:00:42.027Z,20.22
2023-04-13T10:03:19.015Z,20.16
2023-04-13T10:05:58.830Z,20.21
2023-04-13T10:10:59.522Z,20.16
2023-04-13T10:13:32.036Z,20.21
2023-04-13T10:16:22.801Z,20.20
2023-04-13T10:19:00.361Z,20.30
2023-04-13T10:21:39.331Z,19.98
2023-04-13T10:24:12.081Z,20.23
2023-04-13T10:26:41.173Z,20.37
2023-04-13T10:29:09.208Z,20.48
2023-04-13T10:31:39.945Z,20.47
2023-04-13T10:34:10.776Z,20.33
2023-04-13T10:36:40.430Z,20.49
2023-04-13T10:39:08.327Z,20.62
2023-04-13T10:41:36.979Z,20.58
2023-04-13T10:44:10.561Z,20.62
2023-04-13T10:46:37.527Z,20.51
2023-04-13T10:49:05.058Z,20.57
2023-04-13T10:51:42.173Z,20.22
2023-04-13T10:54:10.641Z,20.42
2023-04-13T10:56:37.611Z,20.36
2023-04-13T10:59:04.634Z,20.43
2023-04-13T11:01:32.060Z,20.07
2023-04-13T11:04:07.758Z,20.24
2023-04-13T11:06:38.138Z,20.35
2023-04-13T11:09:07.116Z,20.41
2023-04-13T11:11:36.636Z,20.54
2023-04-13T11:14:05.149Z,20.48
2023-04-13T11:16:31.953Z,20.67
2023-04-13T11:19:05.528Z,20.65
2023-04-13T11:21:32.611Z,20.75
2023-04-13T11:24:02.147Z,20.81
2023-04-13T11:26:33.967Z,20.89
2023-04-13T11:29:00.995Z,20.87
2023-04-13T11:31:42.307Z,21.06
2023-04-13T11:34:11.373Z,21.09
2023-04-13T11:36:41.044Z,21.22
2023-04-13T11:39:10.796Z,21.26
2023-04-13T11:41:41.876Z,21.38
2023-04-13T11:44:11.415Z,21.21
2023-04-13T11:46:38.434Z,21.35
2023-04-13T11:49:05.418Z,21.32
2023-04-13T11:51:33.191Z,21.50
2023-04-13T11:54:01.114Z,21.51
2023-04-13T11:56:28.054Z,21.54
2023-04-13T11:58:55.264Z,21.51
2023-04-13T12:01:27.175Z,21.67
2023-04-13T12:04:13.961Z,21.52
2023-04-13T12:06:45.568Z,21.59
2023-04-13T12:09:16.621Z,21.69
2023-04-13T12:11:50.208Z,21.73
2023-04-13T12:19:26.441Z,21.69
2023-04-13T12:21:57.293Z,21.71
2023-04-13T12:24:37.878Z,21.83
2023-04-13T12:29:39.900Z,21.90
2023-04-13T12:32:13.943Z,21.91
2023-04-13T12:34:41.679Z,21.90
2023-04-13T12:37:08.840Z,21.94
2023-04-13T12:39:35.682Z,22.07
2023-04-13T12:42:02.582Z,21.84
2023-04-13T12:44:30.731Z,21.98
2023-04-13T12:46:58.517Z,21.98
2023-04-13T12:49:25.827Z,22.05
2023-04-13T12:51:52.544Z,22.01
2023-04-13T12:54:19.317Z,21.76
2023-04-13T12:56:46.229Z,21.73
2023-04-13T12:59:13.053Z,21.73
2023-04-13T13:01:39.806Z,21.79
2023-04-13T13:04:06.984Z,21.71
2023-04-13T13:06:34.291Z,21.82
2023-04-13T13:09:01.442Z,21.72
2023-04-13T13:11:28.614Z,21.75
2023-04-13T13:13:55.389Z,21.60
2023-04-13T13:16:22.338Z,21.79
2023-04-13T13:18:52.553Z,21.49
2023-04-13T13:21:20.032Z,21.67
2023-04-13T13:23:46.909Z,21.79
2023-04-13T13:26:23.943Z,21.73
2023-04-13T13:28:52.155Z,21.88
2023-04-13T13:31:19.610Z,21.99
2023-04-13T13:33:46.988Z,21.93
2023-04-13T13:36:14.684Z,21.82
2023-04-13T13:38:43.125Z,21.90
2023-04-13T13:41:10.435Z,21.90
2023-04-13T13:43:37.944Z,21.93
2023-04-13T13:46:08.292Z,21.90
2023-04-13T13:48:37.578Z,21.99
2023-04-13T13:51:22.986Z,22.03
2023-04-13T13:53:50.471Z,22.07
2023-04-13T13:56:17.342Z,22.28
2023-04-13T13:58:44.040Z,22.25
2023-04-13T14:01:10.975Z,22.23
2023-04-13T14:03:38.207Z,22.09
2023-04-13T14:06:05.402Z,22.31
2023-04-13T14:08:32.289Z,22.26
2023-04-13T14:11:00.864Z,22.35
2023-04-13T14:13:27.768Z,22.33
2023-04-13T14:15:58.749Z,22.35
2023-04-13T14:18:25.867Z,22.21
2023-04-13T14:20:53.279Z,22.31
2023-04-13T14:23:20.117Z,22.11
2023-04-13T14:25:46.857Z,22.13
2023-04-13T14:28:14.521Z,22.09
2023-04-13T14:30:41.443Z,22.16
2023-04-13T14:33:08.373Z,22.22
2023-04-13T14:35:35.543Z,21.97
2023-04-13T14:38:02.418Z,22.23
2023-04-13T14:40:29.183Z,22.11
2023-04-13T14:42:56.024Z,22.10
2023-04-13T14:45:23.614Z,22.29
2023-04-13T14:47:50.642Z,22.43
2023-04-13T14:50:17.546Z,22.34
2023-04-13T14:52:45.813Z,22.35
2023-04-13T14:55:13.863Z,22.35
2023-04-13T14:57:41.616Z,22.20
2023-04-13T15:00:29.483Z,22.32
2023-04-13T15:02:56.620Z,22.21
2023-04-13T15:05:23.695Z,22.42
2023-04-13T15:07:51.034Z,22.36
2023-04-13T15:10:18.440Z,22.31
2023-04-13T15:12:45.361Z,22.24
2023-04-13T15:15:12.206Z,22.10
2023-04-13T15:17:39.034Z,22.10
2023-04-13T15:20:07.615Z,21.95
2023-04-13T15:22:36.088Z,21.71
2023-04-13T15:25:03.567Z,21.86
2023-04-13T15:27:30.473Z,21.86
2023-04-13T15:29:59.804Z,21.87
2023-04-13T15:32:26.566Z,21.82
2023-04-13T15:34:56.268Z,21.60
2023-04-13T15:37:26.149Z,21.56
2023-04-13T15:39:54.355Z,21.44
2023-04-13T15:42:22.166Z,21.02
2023-04-13T15:44:48.951Z,20.79
2023-04-13T15:47:15.769Z,20.88
2023-04-13T15:49:42.565Z,20.25
2023-04-13T15:52:09.343Z,19.91
2023-04-13T15:54:36.131Z,19.89
2023-04-13T15:57:03.066Z,19.87
2023-04-13T15:59:30.938Z,20.22
2023-04-13T16:01:57.815Z,19.92
2023-04-13T16:04:24.909Z,20.22
2023-04-13T16:07:05.045Z,20.42
2023-04-13T16:09:38.596Z,20.23
2023-04-13T16:12:11.103Z,20.69
2023-04-13T16:14:44.835Z,20.92
2023-04-13T16:17:15.108Z,20.96
2023-04-13T16:19:47.430Z,21.01
2023-04-13T16:22:14.490Z,21.09
2023-04-13T16:24:42.065Z,21.09
2023-04-13T16:27:10.172Z,21.32
2023-04-13T16:29:37.109Z,20.82
2023-04-13T16:32:03.950Z,21.32
2023-04-13T16:34:30.824Z,21.54
2023-04-13T16:36:58.374Z,21.55
2023-04-13T16:39:25.400Z,21.51
2023-04-13T16:41:52.219Z,21.76
2023-04-13T16:44:19.138Z,21.75
2023-04-13T16:46:46.215Z,21.77
2023-04-13T16:49:13.021Z,21.84
2023-04-13T16:51:39.745Z,21.95
2023-04-13T16:54:06.675Z,22.17
2023-04-13T16:56:33.412Z,21.73
2023-04-13T16:59:00.437Z,21.41
2023-04-13T17:01:28.399Z,20.94
2023-04-13T17:03:55.530Z,20.30
2023-04-13T17:06:22.456Z,20.56
2023-04-13T17:08:49.224Z,20.65
2023-04-13T17:11:16.068Z,20.37
2023-04-13T17:13:42.894Z,20.48
2023-04-13T17:16:10.353Z,20.56
2023-04-13T17:18:37.173Z,20.34
2023-04-13T17:21:04.206Z,20.12
2023-04-13T17:23:31.544Z,20.07
2023-04-13T17:25:58.284Z,19.76
2023-04-13T17:28:25.570Z,19.67
2023-04-13T17:30:52.689Z,19.51
2023-04-13T17:33:19.460Z,19.14
2023-04-13T17:35:46.581Z,18.86
2023-04-13T17:38:13.461Z,19.16
2023-04-13T17:40:40.303Z,19.19
2023-04-13T17:43:08.684Z,19.13
2023-04-13T17:45:35.482Z,18.98
2023-04-13T17:48:02.725Z,18.70
2023-04-13T17:50:31.862Z,18.58
2023-04-13T17:53:00.408Z,18.53
2023-04-13T17:55:27.277Z,18.18
2023-04-13T17:57:54.002Z,18.26
2023-04-13T18:00:20.817Z,18.26
2023-04-13T18:02:50.901Z,18.33
2023-04-13T18:05:18.454Z,18.32
2023-04-13T18:07:45.551Z,18.04
2023-04-13T18:10:12.499Z,18.02
2023-04-13T18:12:40.757Z,17.95
2023-04-13T18:15:08.656Z,18.03
2023-04-13T18:17:36.707Z,18.10
2023-04-13T18:20:04.190Z,18.02
2023-04-13T18:22:32.769Z,17.89
2023-04-13T18:24:59.662Z,17.74
2023-04-13T18:27:27.715Z,17.73
2023-04-13T18:29:55.508Z,17.62
2023-04-13T18:32:23.376Z,17.53
2023-04-13T18:34:50.442Z,17.46
2023-04-13T18:37:17.175Z,17.56
2023-04-13T18:39:44.983Z,17.60
2023-04-13T18:42:11.907Z,17.65
2023-04-13T18:44:38.703Z,17.59
2023-04-13T18:47:05.710Z,17.53
2023-04-13T18:49:32.642Z,17.58
2023-04-13T18:51:59.490Z,17.51
2023-04-13T18:54:26.248Z,17.38
2023-04-13T18:56:52.976Z,17.46
2023-04-13T18:59:19.864Z,17.40
2023-04-13T19:01:47.396Z,17.33
2023-04-13T19:04:14.458Z,17.39
2023-04-13T19:06:41.263Z,17.27
2023-04-13T19:09:08.357Z,17.30
2023-04-13T19:11:50.318Z,17.30
2023-04-13T19:14:17.346Z,17.18
2023-04-13T19:16:45.711Z,17.06
2023-04-13T19:19:14.607Z,17.01
2023-04-13T19:21:41.382Z,17.08
2023-04-13T19:24:08.563Z,17.11
2023-04-13T19:26:35.320Z,16.98
2023-04-13T19:29:04.000Z,16.72
2023-04-13T19:31:34.695Z,16.72
2023-04-13T19:34:01.725Z,16.61
2023-04-13T19:36:28.637Z,16.62
2023-04-13T19:38:55.571Z,16.50
2023-04-13T19:41:23.570Z,16.41
2023-04-13T19:43:51.050Z,16.39
2023-04-13T19:46:17.828Z,16.43
2023-04-13T19:48:44.805Z,16.38
2023-04-13T19:51:11.711Z,16.33
2023-04-13T19:53:38.576Z,16.28
2023-04-13T19:56:05.469Z,16.40
2023-04-13T19:58:32.778Z,16.44
2023-04-13T20:01:00.327Z,16.35
2023-04-13T20:03:28.674Z,16.33
2023-04-13T20:05:58.631Z,16.46
2023-04-13T20:08:25.746Z,16.51
2023-04-13T20:10:52.812Z,16.54
2023-04-13T20:13:19.592Z,16.30
2023-04-13T20:15:46.395Z,16.16
2023-04-13T20:18:13.170Z,16.17
2023-04-13T20:20:42.429Z,16.24
2023-04-13T20:23:09.611Z,16.21
2023-04-13T20:25:38.582Z,16.13
2023-04-13T20:28:05.968Z,16.21
2023-04-13T20:30:32.890Z,16.25
2023-04-13T20:32:59.607Z,16.14
2023-04-13T20:35:27.895Z,16.27
2023-04-13T20:37:55.319Z,16.28
2023-04-13T20:40:27.087Z,16.39
2023-04-13T20:42:55.264Z,16.39
2023-04-13T20:45:23.325Z,16.49
2023-04-13T20:47:53.372Z,16.41
2023-04-13T20:50:23.863Z,16.36
2023-04-13T20:52:53.349Z,16.36
2023-04-13T20:55:21.352Z,16.36
2023-04-13T20:57:49.936Z,16.42
2023-04-13T21:00:18.199Z,16.37
2023-04-13T21:02:46.912Z,16.36
2023-04-13T21:05:14.571Z,16.31
2023-04-13T21:07:41.941Z,16.28
2023-04-13T21:10:10.041Z,16.17
2023-04-13T21:12:37.056Z,16.13
2023-04-13T21:15:04.471Z,16.02
2023-04-13T21:17:31.717Z,15.99
2023-04-13T21:19:58.577Z,15.90
2023-04-13T21:22:25.396Z,15.96
2023-04-13T21:24:52.235Z,16.08
2023-04-13T21:27:19.336Z,16.11
2023-04-13T21:29:46.265Z,16.03
2023-04-13T21:32:13.722Z,16.11
2023-04-13T21:34:40.600Z,16.06
2023-04-13T21:37:07.468Z,16.08
2023-04-13T21:39:34.564Z,15.96
2023-04-13T21:42:01.377Z,16.06
2023-04-13T21:44:30.187Z,16.11
2023-04-13T21:46:58.611Z,16.17
2023-04-13T21:49:25.589Z,16.18
2023-04-13T21:51:52.295Z,16.09
2023-04-13T21:54:19.229Z,15.96
2023-04-13T21:56:46.871Z,16.03
2023-04-13T21:59:13.775Z,16.03
2023-04-13T22:01:40.591Z,16.03
2023-04-13T22:04:07.565Z,16.05
2023-04-13T22:06:34.383Z,16.03
2023-04-13T22:09:01.466Z,15.96
2023-04-13T22:11:28.522Z,15.82
2023-04-13T22:13:55.271Z,15.92
2023-04-13T22:16:22.161Z,15.93
2023-04-13T22:18:49.364Z,15.95
2023-04-13T22:21:16.170Z,16.00
2023-04-13T22:23:42.868Z,16.01
2023-04-13T22:26:09.748Z,15.90
2023-04-13T22:28:36.461Z,15.85
2023-04-13T22:31:08.097Z,15.68
2023-04-13T22:33:40.425Z,15.67
2023-04-13T22:36:17.566Z,15.66
2023-04-13T22:38:44.522Z,15.71
2023-04-13T22:41:11.498Z,15.71
2023-04-13T22:43:38.475Z,15.76
2023-04-13T22:46:05.887Z,15.82
2023-04-13T22:48:32.682Z,15.84
2023-04-13T22:51:03.623Z,15.87
2023-04-13T22:53:31.204Z,15.90
2023-04-13T22:55:59.353Z,15.93
2023-04-13T22:58:26.605Z,15.92
2023-04-13T23:00:53.422Z,15.96
2023-04-13T23:03:21.411Z,15.98
2023-04-13T23:05:48.582Z,16.00
2023-04-13T23:08:15.557Z,15.99
2023-04-13T23:10:42.394Z,15.98
2023-04-13T23:13:09.210Z,15.99
2023-04-13T23:15:36.180Z,15.89
2023-04-13T23:18:02.997Z,15.82
2023-04-13T23:20:30.168Z,15.80
2023-04-13T23:22:56.930Z,15.82
2023-04-13T23:25:23.697Z,15.81
2023-04-13T23:27:50.518Z,15.82
2023-04-13T23:30:17.388Z,15.84
2023-04-13T23:32:44.301Z,15.84
2023-04-13T23:35:11.121Z,15.82
2023-04-13T23:37:37.873Z,15.82
2023-04-13T23:40:05.509Z,15.78
2023-04-13T23:42:32.403Z,15.79
2023-04-13T23:44:59.181Z,15.78
2023-04-13T23:47:26.091Z,15.77
2023-04-13T23:49:54.193Z,15.75
2023-04-13T23:52:21.072Z,15.74
2023-04-13T23:54:47.921Z,15.75
2023-04-13T23:57:14.774Z,15.74
2023-04-13T23:59:41.632Z,15.75
